チューク諸島 の空港の天気 - METARとTAF

チューク国際空港 ( PTKK / TKK ) - ミクロネシア連邦 チューク諸島
飛行場実況気象(Metar)
観測時間05/28 20:52 +10 (05/28 10:52 UTC)
風向・風速不定 2m/s
視程10km以上
天気現象
少しの雲 雲底高度 430m
全天の8割程度の雲 雲底高度 8530m
気温28.3℃
湿度85%
気圧1010hPa
METARPTKK 281052Z VRB04KT 15SM FEW014 BKN280 28/26 A2982 RMK SLP100 T02830256
過去の天気等 Google飛行場航空写真 Wunderground天気予報

過去48時間のMETAR

飛行場予報(TAF)
発表時間: 5/28 15:43 +10 (5/28 05:43 UTC)
予報対象時間: 28日16時 +10 ~ 29日16時 +10
風向・風速東北東 5m/s
視程10km以上
天気現象周辺でしゅう雨
少しの雲 雲底高度 460m
全天の4割程度の雲 雲底高度 3660m
28日16時 +10 ~ 28日20時 +10 に一時的に
風向・風速東 5m/s 瞬間風速 9m/s
視程8050m
天気現象弱いしゅう雨
全天の4割程度の雲 雲底高度 460m
TAF COR PTKK 280543Z 2806/2906 07010KT P6SM VCSH FEW015 SCT120
TEMPO 2806/2810 09010G18KT 5SM -SHRA SCT015